Rushville, MO

12:07 AM CDT on April 19, 2015 (GMT -0500)
APRSWXNET | | Change Station
CLOSE
Current Station
Personal Weather Station
Location: Rushville, MO
Elevation: 794 ft
Nearby Weather Stations

Elev 794 ft 39.66 °N, 95.01 °W | Updated 25 minutes ago

Partly Cloudy
Partly Cloudy
56 °F
Feels Like 56 °F
N
0
Wind Variable Wind from SSE
Gusts 0.0 mph

Today
High -- | Low -- °F
--% Chance of Precip.
Yesterday
High -- | Low -- °F
Precip. -- in
6:37 AM 8:01 PM
New Moon, 0% visible
Pressure 29.81 in
Visibility 0.2 miles
Clouds Scattered Clouds 12000 ft
Dew Point 54 °F
Humidity 93%
Rainfall in
Snow Depth Not available.
UV 0 out of 12
Pollen 2.90 out of 12
Air Quality Not available.
Flu Activity Local Activity
METAR KSTJ 190453Z AUTO 00000KT 1/4SM R35/P6000FT FG SCT120 11/11 A2982 RMK AO2 SLP095 T01110111

More Conditions Fewer Conditions

Pressure 29.81 in
Visibility 0.2 miles
Clouds Scattered Clouds 12000 ft
Dew Point 54 °F
Humidity 93%
Rainfall in
Snow Depth Not available.
UV 0 out of 12
Pollen 2.90 out of 12
Air Quality Not available.
Flu Activity Local Activity
METAR KSTJ 190453Z AUTO 00000KT 1/4SM R35/P6000FT FG SCT120 11/11 A2982 RMK AO2 SLP095 T01110111

More Conditions Fewer Conditions

10-Day Weather Forecast

Almanac

Astronomy

Apr. 19, 2015 Rise Set
Actual Time
Civil Twilight
Nautical Twilight
Astronomical Twilight
Moon
Length of Visible Light
Length of Day
Tomorrow will be .
, % of the Moon is Illuminated

Today's Extremes

State Highs State Lows

Community

WunderPhotos

Upload Photos

1,814,724 photos uploaded!

WunderBlogs® & News

Nearby

Air Quality

  Air Quality AQ Index Pollutant
Not available.

Snow Depth

Station Depth Elevation

Earthquake Activity

City Distance Mag. Time & Date
Minimum magnitude displayed is 2.5.

Coastal Water Temperatures

Place Temperature

Stations

Nearby Weather Stations

Station Location Temp. Windchill Dew Point Humidity Wind Precip. Elev Updated Type